Time;durP1;ratioP1;P1;durP2;ratioP2;P2;SDS_P1;SDS_P2;PMS_P1;PMS_P2;Temp;Humidity;BMP_temperature;BMP_pressure;BME280_temperature;BME280_humidity;BME280_pressure;Samples;Min_cycle;Max_cycle;Signal;HPM_P1;HPM_P2
2023/04/07 00:00:40;;;;;;;32.65;17.85;;;;;;;8.50;100.00;101267.91;4970262;28;20042;-71
2023/04/07 00:03:07;;;;;;;31.55;17.52;;;;;;;8.46;100.00;101276.69;4987282;28;20129;-70
2023/04/07 00:05:35;;;;;;;26.65;16.88;;;;;;;8.44;100.00;101281.13;4969634;28;20471;-70
2023/04/07 00:08:02;;;;;;;31.20;17.20;;;;;;;8.40;100.00;101274.16;4986248;28;20045;-70
2023/04/07 00:10:29;;;;;;;25.92;15.88;;;;;;;8.37;100.00;101280.34;4994246;28;20050;-70
2023/04/07 00:12:56;;;;;;;27.85;15.75;;;;;;;8.36;100.00;101272.47;4969316;28;20051;-70
2023/04/07 00:15:25;;;;;;;26.10;15.23;;;;;;;8.35;100.00;101276.84;4970730;28;20574;-71
2023/04/07 00:17:52;;;;;;;24.67;14.65;;;;;;;8.33;100.00;101275.16;4968529;28;20863;-71
2023/04/07 00:20:19;;;;;;;23.38;14.55;;;;;;;8.31;100.00;101274.28;4987121;28;20530;-71
2023/04/07 00:22:47;;;;;;;22.30;13.32;;;;;;;8.30;100.00;101280.44;4970824;28;20074;-71
2023/04/07 00:25:14;;;;;;;22.67;13.55;;;;;;;8.29;100.00;101270.81;4968725;28;20504;-71
2023/04/07 00:27:41;;;;;;;19.00;11.90;;;;;;;8.29;100.00;101276.06;4969283;28;20042;-71
2023/04/07 00:30:09;;;;;;;18.15;11.60;;;;;;;8.24;100.00;101274.34;4987264;28;20042;-70
2023/04/07 00:32:36;;;;;;;21.60;11.93;;;;;;;8.26;100.00;101276.09;4968974;28;20053;-71
2023/04/07 00:35:04;;;;;;;21.60;12.00;;;;;;;8.26;100.00;101279.63;4987926;28;20038;-71
2023/04/07 00:37:32;;;;;;;20.38;11.77;;;;;;;8.25;100.00;101275.25;4987159;28;20047;-71
2023/04/07 00:39:59;;;;;;;23.77;12.40;;;;;;;8.26;100.00;101274.34;4970120;28;20039;-70
2023/04/07 00:42:26;;;;;;;22.75;12.50;;;;;;;8.27;100.00;101281.34;4970914;28;20039;-71
2023/04/07 00:44:53;;;;;;;20.42;12.82;;;;;;;8.26;100.00;101278.72;4968653;28;20047;-70
2023/04/07 00:47:20;;;;;;;18.67;12.10;;;;;;;8.24;100.00;101278.75;4983236;28;20482;-71
2023/04/07 00:49:47;;;;;;;19.55;11.40;;;;;;;8.23;100.00;101284.91;4968092;28;20135;-70
2023/04/07 00:52:15;;;;;;;17.65;11.27;;;;;;;8.22;100.00;101284.03;4988033;28;20175;-70
2023/04/07 00:54:45;;;;;;;18.23;11.10;;;;;;;8.23;100.00;101292.78;4970089;28;20043;-71
2023/04/07 00:57:12;;;;;;;17.20;11.10;;;;;;;8.19;100.00;101281.44;4964449;28;20499;-70
2023/04/07 00:59:39;;;;;;;17.80;11.18;;;;;;;8.21;100.00;101281.41;4986200;28;20563;-70
2023/04/07 01:02:21;;;;;;;19.30;11.20;;;;;;;8.23;100.00;101277.00;4963649;28;20039;-71
2023/04/07 01:05:20;;;;;;;17.33;10.70;;;;;;;8.21;100.00;101277.03;4986302;28;20193;-70
2023/04/07 01:08:22;;;;;;;16.67;10.55;;;;;;;8.21;100.00;101278.78;4983119;28;20042;-70
2023/04/07 01:11:25;;;;;;;17.60;10.30;;;;;;;8.21;100.00;101282.31;4985771;28;20046;-70
2023/04/07 01:13:56;;;;;;;21.52;11.18;;;;;;;8.22;100.00;101277.91;4983596;28;20051;-70
2023/04/07 01:16:48;;;;;;;23.23;11.57;;;;;;;8.22;100.00;101283.16;4970705;28;20050;-70
2023/04/07 01:19:38;;;;;;;16.33;9.73;;;;;;;8.22;100.00;101277.91;4982462;28;22085;-70
2023/04/07 01:22:16;;;;;;;15.77;9.50;;;;;;;8.21;100.00;101284.03;4967341;28;20455;-70
2023/04/07 01:25:22;;;;;;;19.88;9.93;;;;;;;8.22;100.00;101289.28;4967478;28;20499;-71
2023/04/07 01:28:20;;;;;;;17.08;9.18;;;;;;;8.20;100.00;101285.81;4968151;28;20154;-71
2023/04/07 01:30:52;;;;;;;13.50;8.60;;;;;;;8.19;100.00;101285.84;4983963;28;20049;-71
2023/04/07 01:33:20;;;;;;;20.60;9.52;;;;;;;8.17;100.00;101285.00;4969167;28;20113;-71
2023/04/07 01:35:50;;;;;;;15.65;9.18;;;;;;;8.15;100.00;101289.38;4969123;28;20046;-71
2023/04/07 01:38:19;;;;;;;17.02;10.20;;;;;;;8.13;100.00;101286.78;4968465;28;20507;-71
2023/04/07 01:40:48;;;;;;;16.63;10.00;;;;;;;8.12;100.00;101286.78;4994887;28;20100;-71
2023/04/07 01:43:17;;;;;;;14.85;9.75;;;;;;;8.14;100.00;101290.28;4969458;28;20042;-70
2023/04/07 01:45:45;;;;;;;17.00;10.35;;;;;;;8.16;100.00;101284.09;4980625;28;20054;-70
2023/04/07 01:48:12;;;;;;;16.25;9.50;;;;;;;8.13;100.00;101286.78;4982931;28;20082;-70
2023/04/07 01:50:42;;;;;;;18.80;9.90;;;;;;;8.15;100.00;101284.13;4984176;28;20074;-70
2023/04/07 01:53:10;;;;;;;20.52;10.40;;;;;;;8.15;100.00;101290.25;4967923;28;20076;-70
2023/04/07 01:55:38;;;;;;;18.73;10.07;;;;;;;8.15;100.00;101292.00;4984757;28;20043;-70
2023/04/07 01:58:08;;;;;;;18.15;9.73;;;;;;;8.14;100.00;101293.75;4966094;28;20039;-70
2023/04/07 02:00:40;;;;;;;19.02;9.40;;;;;;;8.15;100.00;101299.91;4952333;28;20043;-70
2023/04/07 02:03:21;;;;;;;15.35;9.00;;;;;;;8.14;100.00;101287.66;4984708;28;20046;-70
2023/04/07 02:05:56;;;;;;;17.98;9.25;;;;;;;8.12;100.00;101299.91;4986021;28;20049;-70
2023/04/07 02:08:29;;;;;;;15.45;8.27;;;;;;;8.10;100.00;101297.31;4987405;28;20532;-70
2023/04/07 02:11:02;;;;;;;18.83;8.57;;;;;;;8.10;100.00;101302.56;4967845;28;20070;-70
2023/04/07 02:13:36;;;;;;;14.88;8.18;;;;;;;8.11;100.00;101306.06;4969361;28;20039;-70
2023/04/07 02:16:07;;;;;;;15.60;6.85;;;;;;;8.11;100.00;101308.69;4967636;28;20515;-70
2023/04/07 02:18:36;;;;;;;12.90;7.18;;;;;;;8.07;100.00;101300.88;4969071;28;20763;-70
2023/04/07 02:21:07;;;;;;;14.23;7.13;;;;;;;8.06;100.00;101306.13;4984398;28;20063;-70
2023/04/07 02:23:35;;;;;;;13.90;6.75;;;;;;;8.05;100.00;101304.38;4987397;28;20102;-70
2023/04/07 02:26:02;;;;;;;11.35;6.90;;;;;;;8.01;100.00;101314.06;4967530;28;20471;-70
2023/04/07 02:28:29;;;;;;;10.82;6.43;;;;;;;8.01;100.00;101315.81;4987215;28;20043;-70
2023/04/07 02:30:56;;;;;;;10.98;6.30;;;;;;;7.99;100.00;101318.44;4983187;28;20037;-70
2023/04/07 02:33:24;;;;;;;12.90;6.38;;;;;;;7.97;100.00;101320.25;4965036;28;20105;-70
2023/04/07 02:35:51;;;;;;;12.25;6.18;;;;;;;7.95;100.00;101326.38;4967693;28;20035;-70
2023/04/07 02:38:18;;;;;;;11.50;6.45;;;;;;;7.92;100.00;101322.03;4968863;28;20114;-70
2023/04/07 02:40:45;;;;;;;13.27;6.85;;;;;;;7.92;100.00;101328.19;4964451;28;20065;-70
2023/04/07 02:43:13;;;;;;;12.88;6.18;;;;;;;7.90;100.00;101326.44;4981821;28;20049;-70
2023/04/07 02:45:40;;;;;;;11.10;5.93;;;;;;;7.90;100.00;101329.94;4951738;28;20089;-70
2023/04/07 02:48:07;;;;;;;12.73;6.28;;;;;;;7.87;100.00;101326.50;4950897;28;20577;-71
2023/04/07 02:50:36;;;;;;;13.77;6.72;;;;;;;7.88;100.00;101331.72;4985528;28;20047;-71
2023/04/07 02:53:03;;;;;;;13.10;6.00;;;;;;;7.86;100.00;101325.59;4969345;28;20398;-70
2023/04/07 02:55:30;;;;;;;10.18;6.07;;;;;;;7.83;100.00;101324.78;4967850;28;20054;-70
2023/04/07 02:57:57;;;;;;;12.45;6.28;;;;;;;7.81;100.00;101311.69;4969172;28;20054;-70
2023/04/07 03:00:34;;;;;;;11.88;6.13;;;;;;;7.84;100.00;101318.63;4951821;28;20512;-70
2023/04/07 03:03:08;;;;;;;13.25;6.82;;;;;;;7.84;100.00;101321.25;4967054;28;20063;-71
2023/04/07 03:05:37;;;;;;;16.05;7.07;;;;;;;7.86;100.00;101317.72;4972361;28;20508;-70
2023/04/07 03:08:05;;;;;;;12.05;7.20;;;;;;;7.86;100.00;101317.72;4967047;28;20050;-70
2023/04/07 03:10:32;;;;;;;16.23;7.25;;;;;;;7.84;100.00;101314.25;4967406;28;20126;-70
2023/04/07 03:12:59;;;;;;;12.98;6.47;;;;;;;7.85;100.00;101317.75;4983537;28;20043;-70
2023/04/07 03:15:27;;;;;;;12.00;6.75;;;;;;;7.84;100.00;101323.88;4973981;28;20039;-70
2023/04/07 03:17:55;;;;;;;11.70;6.90;;;;;;;7.82;100.00;101330.91;4969426;28;20039;-70
2023/04/07 03:20:22;;;;;;;9.15;5.78;;;;;;;7.81;100.00;101326.53;4988646;28;20039;-70
2023/04/07 03:22:49;;;;;;;11.52;6.60;;;;;;;7.82;100.00;101333.53;4979028;28;20035;-70
2023/04/07 03:25:26;;;;;;;12.90;5.68;;;;;;;7.81;100.00;101321.28;4969007;28;20042;-70
2023/04/07 03:27:54;;;;;;;8.93;5.93;;;;;;;7.81;100.00;101316.94;4971931;28;20046;-70
2023/04/07 03:30:22;;;;;;;11.07;6.32;;;;;;;7.83;100.00;101327.41;4969725;28;20047;-70
2023/04/07 03:32:49;;;;;;;11.48;5.90;;;;;;;7.84;100.00;101331.78;4989153;28;20039;-70
2023/04/07 03:35:16;;;;;;;12.82;6.22;;;;;;;7.84;100.00;101329.16;4986968;28;20043;-70
2023/04/07 03:37:44;;;;;;;11.23;6.35;;;;;;;7.84;100.00;101329.16;4974777;28;20070;-70
2023/04/07 03:40:15;;;;;;;12.95;6.55;;;;;;;7.81;100.00;101327.44;4985848;28;20054;-70
2023/04/07 03:42:45;;;;;;;11.20;6.63;;;;;;;7.78;100.00;101320.44;4987780;28;20039;-70
2023/04/07 03:45:13;;;;;;;14.20;6.88;;;;;;;7.79;100.00;101323.94;4969897;28;20062;-70
2023/04/07 03:47:45;;;;;;;12.05;7.43;;;;;;;7.80;100.00;101323.06;4947903;28;20535;-70
2023/04/07 03:50:13;;;;;;;14.48;6.45;;;;;;;7.79;100.00;101323.94;4967707;28;20043;-69
2023/04/07 03:52:51;;;;;;;13.13;7.78;;;;;;;7.80;100.00;101327.41;4964285;28;20073;-69
2023/04/07 03:55:23;;;;;;;14.18;7.47;;;;;;;7.80;100.00;101328.31;4967395;28;20046;-70
2023/04/07 03:57:56;;;;;;;14.70;8.50;;;;;;;7.81;100.00;101323.91;4968936;28;20388;-71
2023/04/07 04:00:26;;;;;;;15.93;8.55;;;;;;;7.81;100.00;101331.78;4955579;28;20047;-70
2023/04/07 04:03:07;;;;;;;19.52;8.80;;;;;;;7.80;100.00;101333.56;4970442;28;20051;-71
2023/04/07 04:05:39;;;;;;;16.95;9.10;;;;;;;7.81;100.00;101327.44;4969164;28;21159;-71
2023/04/07 04:08:10;;;;;;;16.00;9.25;;;;;;;7.82;100.00;101334.41;4975931;28;20050;-70
2023/04/07 04:10:39;;;;;;;16.80;9.40;;;;;;;7.83;100.00;101328.28;4969321;28;20039;-70
2023/04/07 04:13:08;;;;;;;17.08;9.95;;;;;;;7.83;100.00;101345.78;4969872;28;20526;-70
2023/04/07 04:15:36;;;;;;;19.17;9.32;;;;;;;7.83;100.00;101348.41;4969847;28;20043;-73
2023/04/07 04:18:07;;;;;;;16.33;9.23;;;;;;;7.82;100.00;101351.91;4971297;28;20121;-70
2023/04/07 04:20:36;;;;;;;16.10;9.57;;;;;;;7.80;100.00;101351.03;4970266;28;20098;-71
2023/04/07 04:23:05;;;;;;;20.75;9.10;;;;;;;7.79;100.00;101344.94;4969905;28;20752;-70
2023/04/07 04:25:33;;;;;;;18.73;10.07;;;;;;;7.77;100.00;101352.84;4968684;28;20137;-71
2023/04/07 04:28:05;;;;;;;19.85;10.82;;;;;;;7.78;100.00;101356.31;4969261;28;20578;-71
2023/04/07 04:30:32;;;;;;;19.90;10.68;;;;;;;7.81;100.00;101358.03;4970539;28;20066;-69
2023/04/07 04:33:02;;;;;;;21.27;10.48;;;;;;;7.79;100.00;101355.44;4954050;28;20047;-68
2023/04/07 04:35:36;;;;;;;22.60;11.18;;;;;;;7.79;100.00;101352.81;4975637;28;20074;-69
2023/04/07 04:38:08;;;;;;;18.95;10.88;;;;;;;7.81;100.00;101355.41;4967941;28;20047;-70
2023/04/07 04:40:38;;;;;;;22.63;10.93;;;;;;;7.80;100.00;101353.66;4967973;28;20040;-72
2023/04/07 04:43:08;;;;;;;16.85;10.85;;;;;;;7.78;100.00;101357.19;4962900;28;20109;-68
2023/04/07 04:45:37;;;;;;;24.00;11.10;;;;;;;7.79;100.00;101352.81;4966567;28;20070;-68
2023/04/07 04:48:17;;;;;;;20.15;11.20;;;;;;;7.80;100.00;101358.91;4969377;28;20868;-68
2023/04/07 04:50:44;;;;;;;20.77;10.60;;;;;;;7.80;100.00;101356.28;4962204;28;20050;-68
2023/04/07 04:53:12;;;;;;;26.23;10.82;;;;;;;7.81;100.00;101358.94;4977854;28;20048;-68
2023/04/07 04:55:50;;;;;;;19.77;10.35;;;;;;;7.82;100.00;101363.28;4972171;28;20637;-66
2023/04/07 04:58:25;;;;;;;;;;;;;;;7.80;100.00;101372.03;4976039;28;20519;-67
2023/04/07 05:00:59;;;;;;;19.55;9.45;;;;;;;7.81;100.00;101363.28;4959398;28;19934;-67
2023/04/07 05:03:36;;;;;;;20.65;10.35;;;;;;;7.82;100.00;101380.78;4975743;28;20042;-66
2023/04/07 05:06:10;;;;;;;19.33;9.60;;;;;;;7.81;100.00;101385.19;4976767;28;20103;-67
2023/04/07 05:08:40;;;;;;;23.33;9.70;;;;;;;7.82;100.00;101371.16;4975195;28;20035;-66
2023/04/07 05:11:07;;;;;;;21.45;9.50;;;;;;;7.84;100.00;101379.00;4972210;28;20054;-66
2023/04/07 05:13:37;;;;;;;18.75;9.48;;;;;;;7.83;100.00;101374.66;4989747;28;20043;-66
2023/04/07 05:16:07;;;;;;;20.15;9.90;;;;;;;7.87;100.00;101376.38;4981972;28;20507;-67
2023/04/07 05:18:35;;;;;;;19.85;9.30;;;;;;;7.92;100.00;101383.31;4990392;28;20045;-68
2023/04/07 05:21:03;;;;;;;16.20;8.82;;;;;;;7.91;100.00;101378.94;4997203;28;20054;-68
2023/04/07 05:23:35;;;;;;;19.33;8.93;;;;;;;7.92;100.00;101382.44;4975603;28;20043;-68
2023/04/07 05:26:03;;;;;;;18.50;8.57;;;;;;;7.90;100.00;101384.19;4976927;28;20039;-68
2023/04/07 05:28:30;;;;;;;17.10;8.73;;;;;;;7.89;100.00;101393.84;4996033;28;20082;-68
2023/04/07 05:31:02;;;;;;;22.00;9.05;;;;;;;7.86;100.00;101385.97;4969456;28;20046;-72
2023/04/07 05:33:33;;;;;;;28.27;8.82;;;;;;;7.87;100.00;101392.97;4977589;28;20039;-68
2023/04/07 05:36:02;;;;;;;21.67;9.57;;;;;;;7.86;100.00;101391.22;4967788;28;20215;-68
2023/04/07 05:38:30;;;;;;;25.17;9.10;;;;;;;7.86;100.00;101393.00;4977323;28;20046;-68
2023/04/07 05:41:04;;;;;;;17.65;8.73;;;;;;;7.86;100.00;101400.88;4976150;28;20048;-68
2023/04/07 05:43:34;;;;;;;22.58;8.45;;;;;;;7.87;100.00;101398.22;4960016;28;20385;-68
2023/04/07 05:46:01;;;;;;;19.35;8.77;;;;;;;7.87;100.00;101398.22;4990387;28;20150;-68
2023/04/07 05:48:29;;;;;;;20.10;8.57;;;;;;;7.91;100.00;101404.31;4975132;28;20049;-68
2023/04/07 05:50:56;;;;;;;20.95;8.85;;;;;;;7.94;100.00;101404.28;4994419;28;20038;-68
2023/04/07 05:53:24;;;;;;;18.38;8.20;;;;;;;7.93;100.00;101405.16;4960341;28;20043;-68
2023/04/07 05:55:51;;;;;;;23.33;8.80;;;;;;;7.94;100.00;101401.66;4992810;28;20047;-68
2023/04/07 05:58:38;;;;;;;23.92;8.98;;;;;;;7.95;100.00;101407.78;4968959;28;20062;-68
2023/04/07 06:01:05;;;;;;;19.38;8.90;;;;;;;7.95;100.00;101416.53;4990916;28;20057;-69
2023/04/07 06:03:32;;;;;;;23.45;8.95;;;;;;;7.95;100.00;101413.91;4976962;28;20652;-68
2023/04/07 06:06:09;;;;;;;22.67;9.30;;;;;;;7.96;100.00;101423.53;4974931;28;20047;-68
2023/04/07 06:08:36;;;;;;;21.60;9.20;;;;;;;7.96;100.00;101414.75;4979494;28;20514;-69
2023/04/07 06:11:04;;;;;;;19.50;8.80;;;;;;;7.98;100.00;101419.13;4994197;28;20043;-68
2023/04/07 06:13:33;;;;;;;25.42;9.15;;;;;;;7.99;100.00;101422.63;4974555;28;20041;-68
2023/04/07 06:16:00;;;;;;;23.63;9.25;;;;;;;8.01;100.00;101426.97;4977275;28;20769;-67
2023/04/07 06:18:27;;;;;;;20.85;8.70;;;;;;;8.01;100.00;101429.59;4990307;28;20054;-66
2023/04/07 06:20:54;;;;;;;17.45;8.73;;;;;;;8.02;100.00;101431.34;4979338;28;20043;-68
2023/04/07 06:23:21;;;;;;;20.92;8.98;;;;;;;8.04;100.00;101426.94;4986624;28;20046;-68
2023/04/07 06:25:52;;;;;;;18.30;9.68;;;;;;;8.07;100.00;101424.28;4996819;28;20050;-67
2023/04/07 06:28:20;;;;;;;24.63;10.70;;;;;;;8.09;100.00;101432.16;4991978;28;20054;-67
2023/04/07 06:30:47;;;;;;;21.85;10.60;;;;;;;8.11;100.00;101435.63;4979734;28;20052;-67
2023/04/07 06:33:15;;;;;;;23.38;10.07;;;;;;;8.11;100.00;101429.50;4977046;28;20247;-67
2023/04/07 06:35:42;;;;;;;25.60;10.50;;;;;;;8.13;100.00;101439.13;4996201;28;20042;-68
2023/04/07 06:38:11;;;;;;;25.20;11.13;;;;;;;8.13;100.00;101438.22;4995629;28;20039;-67
2023/04/07 06:40:38;;;;;;;21.25;10.02;;;;;;;8.13;100.00;101444.38;4960258;28;20042;-68
2023/04/07 06:43:05;;;;;;;20.05;9.88;;;;;;;8.16;100.00;101438.22;4989304;28;20500;-67
2023/04/07 06:45:51;;;;;;;20.08;10.05;;;;;;;8.15;100.00;101453.06;4977651;28;20890;-67
2023/04/07 06:48:19;;;;;;;23.25;10.02;;;;;;;8.16;100.00;101448.72;4996668;28;20038;-67
2023/04/07 06:50:48;;;;;;;22.35;10.35;;;;;;;8.19;100.00;101449.53;4999401;28;20050;-68
2023/04/07 06:53:16;;;;;;;22.40;10.75;;;;;;;8.22;100.00;101453.88;4994537;28;20073;-68
2023/04/07 06:55:43;;;;;;;23.17;10.18;;;;;;;8.22;100.00;101453.88;4995028;28;20054;-68
2023/04/07 06:58:10;;;;;;;24.98;10.85;;;;;;;8.23;100.00;101455.63;4972695;28;20043;-68
2023/04/07 07:00:37;;;;;;;24.20;9.98;;;;;;;8.26;100.00;101459.97;4982023;28;20049;-68
2023/04/07 07:03:05;;;;;;;26.55;11.20;;;;;;;8.27;100.00;101456.47;4990719;28;20082;-68
2023/04/07 07:05:32;;;;;;;29.17;11.77;;;;;;;8.28;100.00;101461.72;4989085;28;20039;-68
2023/04/07 07:07:59;;;;;;;24.13;11.75;;;;;;;8.28;100.00;101464.34;4976685;28;20499;-67
2023/04/07 07:10:26;;;;;;;23.75;10.13;;;;;;;8.30;100.00;101467.81;4964106;28;20478;-67
2023/04/07 07:12:54;;;;;;;27.90;10.75;;;;;;;8.31;100.00;101464.28;4978040;28;20038;-67
2023/04/07 07:15:21;;;;;;;22.95;10.98;;;;;;;8.32;100.00;101466.03;4998817;28;20034;-68
2023/04/07 07:17:48;;;;;;;24.33;10.27;;;;;;;8.37;100.00;101465.97;4982659;28;20049;-68
2023/04/07 07:20:15;;;;;;;27.48;12.18;;;;;;;8.40;100.00;101461.56;4988785;28;20035;-68
2023/04/07 07:22:42;;;;;;;21.05;11.32;;;;;;;8.44;100.00;101472.94;4971621;28;20501;-68
2023/04/07 07:25:10;;;;;;;19.23;11.23;;;;;;;8.46;99.14;101473.75;4990025;28;20058;-68
2023/04/07 07:27:37;;;;;;;23.02;11.48;;;;;;;8.45;99.02;101474.66;4983497;28;20042;-67
2023/04/07 07:30:05;;;;;;;22.20;11.18;;;;;;;8.48;98.70;101476.44;4990621;28;20042;-67
2023/04/07 07:32:32;;;;;;;22.17;10.75;;;;;;;8.47;98.41;101486.06;4971537;28;20042;-68
2023/04/07 07:34:59;;;;;;;22.13;10.55;;;;;;;8.46;98.31;101486.03;4988350;28;20553;-68
2023/04/07 07:37:26;;;;;;;22.73;11.32;;;;;;;8.45;98.08;101489.56;4972577;28;20043;-68
2023/04/07 07:39:55;;;;;;;25.48;12.25;;;;;;;8.45;98.71;101484.31;4985978;28;20062;-67
2023/04/07 07:42:22;;;;;;;19.58;11.63;;;;;;;8.49;98.86;101488.69;4984652;28;20055;-68
2023/04/07 07:44:49;;;;;;;20.75;10.38;;;;;;;8.54;98.59;101492.13;4983375;28;20047;-68
2023/04/07 07:47:17;;;;;;;20.65;11.63;;;;;;;8.60;98.94;101492.03;4984326;28;20475;-68
2023/04/07 07:49:44;;;;;;;30.35;11.90;;;;;;;8.63;98.64;101489.38;4987874;28;20470;-68
2023/04/07 07:52:11;;;;;;;26.48;11.60;;;;;;;8.69;98.50;101481.44;5000245;28;20045;-67
2023/04/07 07:54:38;;;;;;;22.40;12.23;;;;;;;8.72;98.07;101495.41;4971240;28;20027;-67
2023/04/07 07:57:05;;;;;;;22.10;11.75;;;;;;;8.74;97.88;101501.53;4979518;28;20545;-67
2023/04/07 07:59:32;;;;;;;24.25;11.80;;;;;;;8.77;97.49;101504.97;4994842;28;20580;-67
2023/04/07 08:01:59;;;;;;;24.77;11.98;;;;;;;8.79;97.07;101494.47;4985780;28;20042;-67
2023/04/07 08:04:26;;;;;;;18.45;11.30;;;;;;;8.77;97.04;101499.72;4986615;28;20105;-68
2023/04/07 08:06:54;;;;;;;25.20;11.68;;;;;;;8.78;96.61;101497.97;4987305;28;20049;-67
2023/04/07 08:09:21;;;;;;;21.00;11.73;;;;;;;8.80;96.81;101509.34;4996888;28;20058;-67
2023/04/07 08:11:49;;;;;;;21.50;11.55;;;;;;;8.80;96.52;101504.09;4977714;28;20030;-67
2023/04/07 08:14:17;;;;;;;20.90;11.80;;;;;;;8.82;96.95;101504.91;5002109;28;20976;-67
2023/04/07 08:16:45;;;;;;;22.83;12.30;;;;;;;8.84;97.17;101511.03;5003334;28;20035;-67
2023/04/07 08:19:12;;;;;;;24.02;12.38;;;;;;;8.85;96.40;101521.53;4979017;28;20518;-67
2023/04/07 08:21:40;;;;;;;23.52;12.57;;;;;;;8.88;96.24;101522.38;4996382;28;20502;-67
2023/04/07 08:24:09;;;;;;;20.98;11.30;;;;;;;8.90;95.72;101528.50;4987748;28;20054;-67
2023/04/07 08:26:36;;;;;;;21.00;12.05;;;;;;;8.97;95.28;101533.66;5005425;28;20098;-67
2023/04/07 08:29:03;;;;;;;24.05;12.00;;;;;;;9.05;94.90;101523.06;4990724;28;20054;-66
2023/04/07 08:31:30;;;;;;;18.80;11.13;;;;;;;9.21;94.74;101530.72;4988196;28;20534;-67
2023/04/07 08:33:57;;;;;;;17.92;10.95;;;;;;;9.39;94.37;101534.88;4986597;28;20110;-67
2023/04/07 08:36:26;;;;;;;21.30;11.48;;;;;;;9.53;93.16;101535.53;4986423;28;20045;-66
2023/04/07 08:38:53;;;;;;;20.02;12.07;;;;;;;9.69;92.93;101540.56;4993542;28;20781;-68
2023/04/07 08:41:43;;;;;;;17.27;11.68;;;;;;;9.83;92.45;101535.94;4998427;28;20047;-68
2023/04/07 08:44:12;;;;;;;21.60;11.82;;;;;;;9.90;92.52;101542.00;5003287;28;20109;-67
2023/04/07 08:46:40;;;;;;;21.15;11.95;;;;;;;9.93;92.00;101539.31;4990532;28;20053;-67
2023/04/07 08:49:09;;;;;;;20.35;12.13;;;;;;;9.95;92.45;101535.75;5002619;28;20046;-67
2023/04/07 08:51:49;;;;;;;19.17;11.98;;;;;;;9.98;90.85;101544.50;4987129;28;20039;-67
2023/04/07 08:54:17;;;;;;;17.80;11.75;;;;;;;9.99;90.57;101536.56;5004285;28;20572;-67
2023/04/07 08:56:45;;;;;;;17.45;10.93;;;;;;;10.03;89.37;101543.53;4992244;28;20045;-67
2023/04/07 08:59:17;;;;;;;14.00;9.95;;;;;;;9.99;87.85;101548.88;4997231;28;20047;-67
2023/04/07 09:01:46;;;;;;;15.95;11.30;;;;;;;9.89;89.15;101550.78;4982142;28;20050;-67
2023/04/07 09:04:13;;;;;;;17.27;8.85;;;;;;;9.82;88.70;101552.63;4991584;28;20579;-67
2023/04/07 09:06:40;;;;;;;12.48;8.73;;;;;;;9.76;87.97;101558.91;5002860;28;20046;-67
2023/04/07 09:09:08;;;;;;;21.17;8.75;;;;;;;9.67;87.84;101558.16;4995396;28;20047;-67
2023/04/07 09:11:38;;;;;;;17.27;8.57;;;;;;;9.63;87.98;101560.81;4996081;28;20043;-67
2023/04/07 09:14:06;;;;;;;14.27;8.85;;;;;;;9.62;88.67;101558.22;5002121;28;20045;-67
2023/04/07 09:16:34;;;;;;;15.10;8.05;;;;;;;9.64;88.69;101564.34;4996015;28;20053;-67
2023/04/07 09:19:01;;;;;;;13.65;8.18;;;;;;;9.62;88.81;101569.59;4990218;28;20070;-67
2023/04/07 09:21:51;;;;;;;15.25;8.45;;;;;;;9.66;89.23;101567.84;4986281;28;20046;-67
2023/04/07 09:24:22;;;;;;;13.32;7.53;;;;;;;9.69;89.00;101574.81;4986533;28;20042;-67
2023/04/07 09:26:49;;;;;;;13.20;7.78;;;;;;;9.67;88.59;101572.19;4980201;28;20046;-67
2023/04/07 09:29:20;;;;;;;19.45;8.55;;;;;;;9.71;88.62;101565.13;4982428;28;20042;-67
2023/04/07 09:31:54;;;;;;;16.40;8.70;;;;;;;9.71;89.10;101573.88;4975760;28;20286;-67
2023/04/07 09:34:27;;;;;;;16.23;8.60;;;;;;;9.76;89.75;101572.06;4987097;28;20031;-67
2023/04/07 09:36:56;;;;;;;14.85;8.27;;;;;;;9.82;89.11;101570.22;4988716;28;20819;-67
2023/04/07 09:39:24;;;;;;;15.52;8.52;;;;;;;9.87;89.53;101566.63;4979812;28;20118;-67
2023/04/07 09:41:52;;;;;;;17.33;8.15;;;;;;;9.97;89.13;101569.09;4980767;28;20563;-68
2023/04/07 09:44:23;;;;;;;16.80;8.57;;;;;;;10.08;88.98;101578.56;4973909;28;20137;-68
2023/04/07 09:46:53;;;;;;;13.93;8.45;;;;;;;10.21;86.61;101578.34;4977888;28;20665;-68
2023/04/07 09:49:21;;;;;;;15.07;8.95;;;;;;;10.24;86.72;101571.25;4986963;28;20825;-68
2023/04/07 09:52:03;;;;;;;15.10;8.52;;;;;;;10.33;86.47;101574.63;4993013;28;20039;-68
2023/04/07 09:54:40;;;;;;;13.15;7.80;;;;;;;10.36;86.07;101575.47;4986964;28;20046;-68
2023/04/07 09:57:10;;;;;;;17.60;8.35;;;;;;;10.41;86.24;101570.16;4976890;28;20038;-68
2023/04/07 09:59:43;;;;;;;13.27;6.70;;;;;;;10.52;84.80;101572.59;4975908;28;20047;-68
2023/04/07 10:02:11;;;;;;;10.32;5.53;;;;;;;10.66;84.23;101577.59;4995034;28;20524;-68
2023/04/07 10:04:39;;;;;;;12.02;6.30;;;;;;;10.82;82.94;101573.78;4989034;28;20038;-68
2023/04/07 10:07:06;;;;;;;14.30;5.95;;;;;;;10.97;82.77;101582.28;4989390;28;20055;-68
2023/04/07 10:09:34;;;;;;;11.85;5.90;;;;;;;11.05;81.53;101580.34;4989906;28;20051;-67
2023/04/07 10:12:02;;;;;;;14.18;6.75;;;;;;;11.04;81.39;101583.88;4967231;28;20894;-68
2023/04/07 10:14:34;;;;;;;12.40;6.72;;;;;;;10.95;81.06;101582.31;4985927;28;20035;-68
2023/04/07 10:17:03;;;;;;;9.88;6.25;;;;;;;10.91;80.40;101587.69;5002610;28;20490;-68
2023/04/07 10:19:34;;;;;;;12.23;6.35;;;;;;;10.83;81.15;101594.00;5000990;28;20065;-68
2023/04/07 10:22:05;;;;;;;13.07;6.82;;;;;;;10.78;81.23;101587.91;4992809;28;20058;-68
2023/04/07 10:25:27;;;;;;;19.10;6.90;;;;;;;10.78;80.75;101587.06;4998884;28;20074;-68
2023/04/07 10:28:03;;;;;;;13.35;6.88;;;;;;;10.81;81.48;101589.63;4917546;28;20944;-68
2023/04/07 10:30:32;;;;;;;10.30;6.18;;;;;;;10.87;80.47;101586.88;4994906;28;20933;-68
2023/04/07 10:33:00;;;;;;;13.43;7.45;;;;;;;10.97;80.56;101588.44;4995457;28;20038;-68
2023/04/07 10:35:28;;;;;;;17.23;6.68;;;;;;;11.07;81.10;101593.53;4988356;28;20193;-68
2023/04/07 10:38:12;;;;;;;10.90;6.38;;;;;;;11.17;79.82;101590.66;4986941;28;20049;-68
2023/04/07 10:40:41;;;;;;;10.67;6.07;;;;;;;11.24;80.30;101593.19;4984979;28;20173;-68
2023/04/07 10:43:13;;;;;;;11.70;6.10;;;;;;;11.30;78.73;101598.31;4981684;28;20247;-68
2023/04/07 10:45:58;;;;;;;10.52;6.03;;;;;;;11.41;78.60;101596.31;5001526;28;20104;-68
2023/04/07 10:48:27;;;;;;;17.20;6.68;;;;;;;11.42;78.18;101603.34;5000934;28;20074;-68
2023/04/07 10:51:03;;;;;;;12.75;6.20;;;;;;;11.53;78.19;101596.97;5002629;28;20043;-68
2023/04/07 10:53:31;;;;;;;10.75;6.07;;;;;;;11.57;78.42;101606.53;4998800;28;20503;-68
2023/04/07 10:55:58;;;;;;;12.63;6.53;;;;;;;11.56;78.12;101607.44;4990741;28;20043;-68
2023/04/07 10:58:33;;;;;;;11.77;6.80;;;;;;;11.44;77.61;101595.38;4991978;28;20047;-68
2023/04/07 11:01:00;;;;;;;14.15;7.47;;;;;;;11.26;77.87;101610.72;4968604;28;20684;-68
2023/04/07 11:03:30;;;;;;;13.40;7.03;;;;;;;11.08;77.38;101611.94;4971703;28;20114;-68
2023/04/07 11:06:12;;;;;;;18.17;8.07;;;;;;;10.84;78.86;101616.81;5002404;28;20114;-68
2023/04/07 11:08:41;;;;;;;16.95;7.55;;;;;;;10.67;79.68;101618.88;4988350;28;20039;-68
2023/04/07 11:11:13;;;;;;;15.18;7.72;;;;;;;10.53;80.03;101614.72;4993977;28;20522;-68
2023/04/07 11:13:41;;;;;;;16.20;8.20;;;;;;;10.45;79.90;101616.63;4974552;28;20035;-68
2023/04/07 11:16:11;;;;;;;14.32;8.20;;;;;;;10.37;81.06;101626.41;4999080;28;20113;-68
2023/04/07 11:18:40;;;;;;;17.45;8.85;;;;;;;10.33;81.74;101627.34;4987449;28;20549;-68
2023/04/07 11:21:08;;;;;;;24.05;9.40;;;;;;;10.29;81.90;101623.03;4997100;28;20038;-68
2023/04/07 11:23:40;;;;;;;14.05;9.02;;;;;;;10.23;82.52;101627.50;4979578;28;20046;-68
2023/04/07 11:26:11;;;;;;;16.75;10.20;;;;;;;10.14;82.50;101622.38;4989896;28;20122;-68
2023/04/07 11:28:53;;;;;;;16.48;9.88;;;;;;;10.10;82.30;101621.56;4991076;28;20065;-68
2023/04/07 11:31:26;;;;;;;17.48;9.43;;;;;;;10.08;81.60;101625.97;4998483;28;20043;-68